Portada
METAR-TAF:

METAR-TAF

Aeropuertos :

Aeropuerto de Pointe-Noire

Pointe-Noire, Congo

latitud: 04-49S, longitud: 011-54E, altitud: 17 m

Observación

El informe se hizo hace 1 hora y 17 minutos, a las 21:00 UTC
Viento 10 kt del suroeste
Temperatura 24°C
Humedad 83%
Presión 1015 hPa
Visibilidad: 8000 m
Escasas nubes a una altura de 1000 ft
Nubes dispersas a una altura de 2300 ft

METAR: FCPP 192100Z 22010KT 8000 FEW010 SCT023 24/21 Q1015 NOSIG

Hora: 23:17 (22:17 UTC)

Pronóstico

El informe se hizo hace 5 horas y 17 minutos, a las 17:00 UTC
Pronóstico válido del 19 a las 18 UTC al 20 a las 18 UTC
Viento 4 kt del sur
Visibilidad: 9000 m
Nubes dispersas a una altura de 1200 ft
Cielo nuboso a una altura de 2300 ft
Probabilidad 40%
del 20 a las 04 UTC al 20 a las 08 UTC
Visibilidad: 3000 m
Cielo nuboso a una altura de 800 ft
neblina

TAF: FCPP 191700Z 1918/2018 18004KT 9000 SCT012 BKN023 PROB40 2004/2008 3000 BR BKN008

Observaciones y pronósticos meteorológicos de más de 4000 aeropuertos (mensajes METAR y TAF).

Los puntos amarillos y rojos representan las estaciones disponibles.

Ponga el ratón en el punto deseado para ver el nombre de la estación.

Haga clic para ver las observaciones y los pronósticos meteorológicos.

Para cambiar el mapa : haga clic en los botones verdes con una cruz de color negro para hacer un zoom, en el botón verde con un guión para alejar o en las flechas verdes para mapas adyacentes.


METAR-TAF: